La Harpe, Kansas
Current Conditions -  °F | °C
As of 1:52 PM on Saturday 25 Oct 2014 (Local Time) from KCNU Reporting Station
Clear Clear  
Wind Chill: 82°   Ceiling: Unl
Heat Index: 83°   Visibility: 10mi
Dew Point: 64°   Wind: 0mph
Humidity: 54%   Direction: NA
Pressure: 30.04"   Gusts: NA
Location:  37.92°N, 95.3°W
Report Text: KCNU 251852Z AUTO 00000KT 10SM CLR 28/18 A3004 RMK AO2 SLP162 T02780178
Loading
Personal Weather Stations






























Interactive Weather Map New forecast layout! Learn more

10-Day Weather Forecast

Advertisements
Track Severe Weather on mobile